Time;durP1;ratioP1;P1;durP2;ratioP2;P2;SDS_P1;SDS_P2;PMS_P1;PMS_P2;Temp;Humidity;BMP_temperature;BMP_pressure;BME280_temperature;BME280_humidity;BME280_pressure;Samples;Min_cycle;Max_cycle;Signal;HPM_P1;HPM_P2
2021/12/01 00:00:33;;;;;;;2.03;1.92;;;-12.40;99.90;;;;;;5111787;28;20065;-64
2021/12/01 00:02:59;;;;;;;1.60;1.50;;;-12.40;99.90;;;;;;5111590;28;20023;-64
2021/12/01 00:05:27;;;;;;;2.13;1.90;;;-12.40;99.90;;;;;;5111310;28;20479;-64
2021/12/01 00:07:55;;;;;;;1.88;1.77;;;-12.40;99.90;;;;;;5096989;28;20048;-64
2021/12/01 00:10:23;;;;;;;2.55;1.73;;;-12.40;99.90;;;;;;5110758;28;20031;-64
2021/12/01 00:12:49;;;;;;;1.80;1.70;;;-12.40;99.90;;;;;;5111382;28;20016;-64
2021/12/01 00:15:15;;;;;;;1.75;1.55;;;-12.40;99.90;;;;;;5111517;28;20024;-64
2021/12/01 00:17:41;;;;;;;1.95;1.85;;;-12.50;99.90;;;;;;5111435;28;20071;-63
2021/12/01 00:20:10;;;;;;;1.95;1.70;;;-12.50;99.90;;;;;;5111445;28;20455;-64
2021/12/01 00:22:37;;;;;;;2.13;1.58;;;-12.50;99.90;;;;;;5111352;28;20031;-64
2021/12/01 00:25:04;;;;;;;1.63;1.52;;;-12.50;99.90;;;;;;5111654;28;20084;-64
2021/12/01 00:27:30;;;;;;;1.98;1.88;;;-12.40;99.90;;;;;;5111186;28;20024;-64
2021/12/01 00:29:57;;;;;;;1.95;1.77;;;-12.40;99.90;;;;;;5115199;28;20034;-63
2021/12/01 00:32:23;;;;;;;2.10;1.90;;;-12.40;99.90;;;;;;5115087;28;20463;-64
2021/12/01 00:34:49;;;;;;;3.40;1.83;;;-12.40;99.90;;;;;;5114796;28;20475;-64
2021/12/01 00:37:15;;;;;;;3.92;1.50;;;-12.40;99.90;;;;;;5115304;28;20051;-64
2021/12/01 00:39:40;;;;;;;4.18;1.95;;;-12.50;99.90;;;;;;5114888;28;20028;-64
2021/12/01 00:42:06;;;;;;;1.95;1.60;;;-12.50;99.90;;;;;;5115213;28;20475;-64
2021/12/01 00:44:35;;;;;;;1.85;1.75;;;-12.50;99.90;;;;;;5114397;28;20466;-64
2021/12/01 00:49:27;;;;;;;1.75;1.65;;;-12.50;99.90;;;;;;5114963;28;20473;-64
2021/12/01 00:51:53;;;;;;;1.80;1.55;;;-12.50;99.90;;;;;;5114931;28;20022;-64
2021/12/01 00:54:19;;;;;;;2.00;1.90;;;-12.60;99.90;;;;;;5114625;28;20107;-64
2021/12/01 00:56:45;;;;;;;2.13;1.75;;;-12.60;99.90;;;;;;5101854;28;20016;-64
2021/12/01 00:59:11;;;;;;;1.40;1.40;;;-12.60;99.90;;;;;;5113212;28;20054;-64
2021/12/01 01:01:38;;;;;;;4.95;1.65;;;-12.60;99.90;;;;;;5114620;27;20019;-64
2021/12/01 01:04:04;;;;;;;1.80;1.70;;;-12.50;99.90;;;;;;5114207;28;20494;-64
2021/12/01 01:06:31;;;;;;;2.42;1.73;;;-12.50;99.90;;;;;;5114349;28;20488;-63
2021/12/01 01:08:56;;;;;;;1.90;1.75;;;-12.50;99.90;;;;;;5114260;28;20030;-64
2021/12/01 01:16:51;;;;;;;1.98;1.77;;;-12.60;99.90;;;;;;5114191;28;20092;-63
2021/12/01 01:19:19;;;;;;;1.90;1.70;;;-12.50;99.90;;;;;;5114227;28;20035;-64
2021/12/01 01:21:50;;;;;;;1.67;1.58;;;-12.50;99.90;;;;;;5114309;28;20457;-63
2021/12/01 01:24:17;;;;;;;3.83;1.83;;;-12.50;99.90;;;;;;5114276;28;20035;-64
2021/12/01 01:26:43;;;;;;;1.85;1.75;;;-12.50;99.90;;;;;;5114077;28;20467;-63
2021/12/01 01:29:10;;;;;;;4.00;1.98;;;-12.50;99.90;;;;;;5114600;28;20020;-63
2021/12/01 01:31:36;;;;;;;2.58;1.95;;;-12.50;99.90;;;;;;5113735;28;20019;-63
2021/12/01 01:34:03;;;;;;;2.05;1.85;;;-12.50;99.90;;;;;;5113810;28;20032;-64
2021/12/01 01:36:30;;;;;;;2.63;1.67;;;-12.50;99.90;;;;;;5113868;28;20077;-64
2021/12/01 01:38:57;;;;;;;1.67;1.58;;;-12.50;99.90;;;;;;5113515;28;20073;-64
2021/12/01 01:41:23;;;;;;;2.20;1.60;;;-12.60;99.90;;;;;;5113315;28;20030;-63
2021/12/01 01:43:51;;;;;;;1.65;1.55;;;-12.60;99.90;;;;;;5113582;28;20054;-64
2021/12/01 01:46:17;;;;;;;2.03;1.90;;;-12.60;99.90;;;;;;5113805;28;20120;-64
2021/12/01 01:48:54;;;;;;;1.48;1.40;;;-12.60;99.90;;;;;;5113497;28;20024;-65
2021/12/01 01:51:23;;;;;;;2.97;1.48;;;-12.60;99.90;;;;;;5114065;28;20079;-64
2021/12/01 01:53:53;;;;;;;1.70;1.60;;;-12.70;99.90;;;;;;5113232;28;20058;-64
2021/12/01 01:56:20;;;;;;;1.80;1.70;;;-12.70;99.90;;;;;;5113774;28;20103;-64
2021/12/01 01:58:47;;;;;;;1.30;1.30;;;-12.70;99.90;;;;;;5110939;28;20092;-64
2021/12/01 02:04:00;;;;;;;4.03;1.70;;;-12.90;99.90;;;;;;5093455;28;20101;-64
2021/12/01 02:06:26;;;;;;;1.70;1.60;;;-12.90;99.90;;;;;;5093584;28;20115;-64
2021/12/01 02:08:54;;;;;;;1.75;1.60;;;-12.90;99.90;;;;;;5093320;28;20028;-64
2021/12/01 02:11:22;;;;;;;1.30;1.30;;;-12.90;99.90;;;;;;5093224;28;20103;-64
2021/12/01 02:13:49;;;;;;;1.52;1.42;;;-13.00;99.90;;;;;;5093001;28;20027;-64
2021/12/01 02:16:16;;;;;;;1.80;1.70;;;-13.00;99.90;;;;;;5093113;28;20035;-64
2021/12/01 02:18:43;;;;;;;1.73;1.63;;;-13.00;99.90;;;;;;5092886;28;20103;-64
2021/12/01 02:21:13;;;;;;;1.60;1.50;;;-13.00;99.90;;;;;;5093094;28;20020;-64
2021/12/01 02:23:44;;;;;;;2.75;1.83;;;-12.90;99.90;;;;;;5092936;28;20024;-64
2021/12/01 02:52:49;;;;;;;2.65;1.50;;;-13.00;99.90;;;;;;5092363;28;20122;-64
2021/12/01 02:55:19;;;;;;;1.60;1.50;;;-13.10;99.90;;;;;;5092609;28;20507;-63
2021/12/01 02:57:52;;;;;;;2.35;1.60;;;-13.10;99.90;;;;;;5092413;28;20480;-64
2021/12/01 03:00:20;;;;;;;3.40;1.50;;;-13.00;99.90;;;;;;5091298;28;20036;-64
2021/12/01 03:02:46;;;;;;;1.95;1.70;;;-13.00;99.90;;;;;;5092490;28;20050;-64
2021/12/01 03:05:14;;;;;;;1.45;1.35;;;-13.00;99.90;;;;;;5092182;28;20391;-65
2021/12/01 03:07:41;;;;;;;2.45;1.55;;;-12.90;99.90;;;;;;5092270;28;20020;-64
2021/12/01 03:10:07;;;;;;;1.52;1.42;;;-13.00;99.90;;;;;;5092019;28;20039;-65
2021/12/01 03:12:35;;;;;;;1.60;1.50;;;-12.90;99.90;;;;;;5092261;28;20028;-65
2021/12/01 03:15:01;;;;;;;1.33;1.30;;;-13.00;99.90;;;;;;5092023;28;20019;-65
2021/12/01 03:17:31;;;;;;;2.60;1.77;;;-13.10;99.90;;;;;;5092347;28;20031;-65
2021/12/01 03:19:57;;;;;;;1.60;1.50;;;-13.10;99.90;;;;;;5092291;28;20032;-65
2021/12/01 03:22:24;;;;;;;1.60;1.50;;;-13.10;99.90;;;;;;5092017;28;20077;-65
2021/12/01 03:24:50;;;;;;;1.60;1.50;;;-13.10;99.90;;;;;;5091705;28;20039;-65
2021/12/01 03:27:17;;;;;;;1.58;1.48;;;-13.20;99.90;;;;;;5092036;28;20103;-65
2021/12/01 03:29:45;;;;;;;1.63;1.52;;;-13.20;99.90;;;;;;5091784;28;20025;-65
2021/12/01 03:32:11;;;;;;;1.70;1.60;;;-13.20;99.90;;;;;;5091936;28;20411;-66
2021/12/01 03:34:37;;;;;;;1.50;1.35;;;-13.20;99.90;;;;;;5091936;28;20111;-66
2021/12/01 03:37:04;;;;;;;1.65;1.55;;;-13.10;99.90;;;;;;5092004;28;20024;-65
2021/12/01 03:39:30;;;;;;;1.48;1.45;;;-13.10;99.90;;;;;;5092086;28;20023;-66
2021/12/01 03:41:55;;;;;;;1.45;1.45;;;-13.10;99.90;;;;;;5092195;28;20099;-65
2021/12/01 03:44:21;;;;;;;1.77;1.52;;;-13.10;99.90;;;;;;5091614;28;20024;-64
2021/12/01 03:46:47;;;;;;;1.70;1.60;;;-13.10;99.90;;;;;;5091941;28;20093;-64
2021/12/01 03:49:13;;;;;;;1.70;1.60;;;-13.10;99.90;;;;;;5091958;28;20077;-64
2021/12/01 03:51:39;;;;;;;1.70;1.60;;;-13.20;99.90;;;;;;5091704;28;20024;-64
2021/12/01 03:54:05;;;;;;;1.60;1.50;;;-13.20;99.90;;;;;;5091969;28;20027;-64
2021/12/01 03:56:33;;;;;;;4.70;1.67;;;-13.20;99.90;;;;;;5091722;28;20526;-64
2021/12/01 03:59:00;;;;;;;2.67;1.52;;;-13.20;99.90;;;;;;5091535;28;20548;-64
2021/12/01 04:01:25;;;;;;;1.77;1.67;;;-13.20;99.90;;;;;;5091720;28;20168;-64
2021/12/01 04:03:51;;;;;;;1.58;1.48;;;-13.20;99.90;;;;;;5093619;28;20106;-64
2021/12/01 04:06:17;;;;;;;2.42;1.60;;;-13.10;99.90;;;;;;5095935;28;20084;-64
2021/12/01 04:08:43;;;;;;;1.73;1.63;;;-13.10;99.90;;;;;;5095358;28;20050;-64
2021/12/01 04:11:09;;;;;;;1.60;1.50;;;-13.10;99.90;;;;;;5095847;28;20024;-64
2021/12/01 04:13:35;;;;;;;1.65;1.55;;;-13.10;99.90;;;;;;5095399;28;20027;-64
2021/12/01 04:16:01;;;;;;;1.63;1.52;;;-13.10;99.90;;;;;;5094296;28;20380;-64
2021/12/01 04:18:26;;;;;;;1.63;1.52;;;-13.20;99.90;;;;;;5095485;28;20039;-64
2021/12/01 04:20:52;;;;;;;2.13;1.60;;;-13.30;99.90;;;;;;5095644;28;20282;-65
2021/12/01 04:23:18;;;;;;;1.73;1.63;;;-13.30;99.90;;;;;;5095308;28;20031;-65
2021/12/01 04:25:44;;;;;;;2.58;1.40;;;-13.30;99.90;;;;;;5095387;28;20128;-65
2021/12/01 04:28:09;;;;;;;1.60;1.50;;;-13.30;99.90;;;;;;5095306;28;20644;-65
2021/12/01 04:30:35;;;;;;;1.70;1.60;;;-13.30;99.90;;;;;;5095317;28;20456;-65
2021/12/01 04:33:01;;;;;;;1.77;1.67;;;-13.30;99.90;;;;;;5095169;28;20062;-65
2021/12/01 04:35:28;;;;;;;2.75;1.50;;;-13.30;99.90;;;;;;5095272;28;20024;-64
2021/12/01 04:37:54;;;;;;;1.90;1.80;;;-13.20;99.90;;;;;;5094971;28;20454;-64
2021/12/01 04:40:20;;;;;;;1.63;1.52;;;-13.20;99.90;;;;;;5094948;28;20024;-64
2021/12/01 04:42:46;;;;;;;4.25;1.80;;;-13.20;99.90;;;;;;5094891;28;20020;-64
2021/12/01 04:45:14;;;;;;;1.55;1.45;;;-13.20;99.90;;;;;;5094980;28;20536;-64
2021/12/01 04:47:48;;;;;;;1.63;1.50;;;-13.20;99.90;;;;;;5094670;28;20499;-63
2021/12/01 04:50:15;;;;;;;5.47;1.70;;;-13.20;99.90;;;;;;5095088;28;20120;-63
2021/12/01 04:52:42;;;;;;;1.58;1.48;;;-13.10;99.90;;;;;;5094588;28;20508;-63
2021/12/01 04:55:08;;;;;;;1.88;1.77;;;-13.10;99.90;;;;;;5094655;28;20111;-64
2021/12/01 04:57:34;;;;;;;1.67;1.58;;;-13.00;99.90;;;;;;5094648;28;20031;-64
2021/12/01 05:00:00;;;;;;;1.70;1.60;;;-13.00;99.90;;;;;;5094363;28;20040;-65
2021/12/01 05:02:26;;;;;;;6.78;1.60;;;-13.00;99.90;;;;;;5094858;28;20020;-65
2021/12/01 05:04:51;;;;;;;1.75;1.65;;;-13.00;99.90;;;;;;5093225;28;20035;-64
2021/12/01 05:07:17;;;;;;;1.60;1.50;;;-13.00;99.90;;;;;;5094661;28;20024;-63
2021/12/01 05:09:43;;;;;;;2.05;1.40;;;-13.00;99.90;;;;;;5094464;28;20024;-64
2021/12/01 05:12:09;;;;;;;2.50;1.58;;;-13.00;99.90;;;;;;5094248;28;20131;-64
2021/12/01 05:14:36;;;;;;;1.70;1.60;;;-12.90;99.90;;;;;;5094025;28;20035;-64
2021/12/01 05:17:03;;;;;;;1.60;1.50;;;-12.90;99.90;;;;;;5094556;28;20039;-63
2021/12/01 05:19:28;;;;;;;1.77;1.67;;;-12.90;99.90;;;;;;5094001;28;20115;-63
2021/12/01 05:21:55;;;;;;;1.65;1.55;;;-13.00;99.90;;;;;;5094021;28;20103;-63
2021/12/01 05:24:21;;;;;;;1.88;1.77;;;-13.00;99.90;;;;;;5093881;28;20035;-64
2021/12/01 05:26:46;;;;;;;1.80;1.70;;;-12.90;99.90;;;;;;5093874;28;20043;-63
2021/12/01 05:29:12;;;;;;;1.60;1.50;;;-12.90;99.90;;;;;;5093761;28;20024;-65
2021/12/01 05:31:39;;;;;;;1.63;1.52;;;-12.90;99.90;;;;;;5094037;28;20063;-64
2021/12/01 05:34:05;;;;;;;1.60;1.50;;;-12.80;99.90;;;;;;5093721;28;20032;-63
2021/12/01 05:36:30;;;;;;;1.60;1.50;;;-12.80;99.90;;;;;;5093879;28;20027;-64
2021/12/01 05:38:57;;;;;;;1.45;1.42;;;-12.80;99.90;;;;;;5093651;28;20093;-63
2021/12/01 05:41:23;;;;;;;2.08;1.95;;;-12.20;99.90;;;;;;5093266;28;20426;-64
2021/12/01 05:43:49;;;;;;;1.67;1.58;;;-11.30;99.90;;;;;;5093215;28;20031;-65
2021/12/01 05:46:15;;;;;;;1.80;1.70;;;-11.40;99.90;;;;;;5091789;28;20031;-65
2021/12/01 05:48:41;;;;;;;4.00;1.52;;;-11.80;99.90;;;;;;5092890;28;20084;-64
2021/12/01 05:51:07;;;;;;;2.25;2.05;;;-11.90;99.90;;;;;;5095782;28;20627;-66
2021/12/01 05:53:33;;;;;;;1.90;1.80;;;-12.10;99.90;;;;;;5098025;28;20028;-68
2021/12/01 05:55:59;;;;;;;1.73;1.63;;;-12.10;99.90;;;;;;5106294;28;20387;-64
2021/12/01 05:58:25;;;;;;;1.80;1.70;;;-12.00;99.90;;;;;;5095388;28;20040;-64
2021/12/01 06:00:51;;;;;;;1.80;1.70;;;-12.10;99.90;;;;;;5093140;28;20486;-63
2021/12/01 06:03:16;;;;;;;1.80;1.60;;;-12.10;99.90;;;;;;5095783;28;20050;-62
2021/12/01 06:05:43;;;;;;;2.13;1.55;;;-12.10;99.90;;;;;;5096675;28;20482;-62
2021/12/01 06:08:09;;;;;;;1.80;1.60;;;-12.10;99.90;;;;;;5092470;28;20023;-63
2021/12/01 06:10:35;;;;;;;2.88;1.65;;;-12.10;99.90;;;;;;5097675;28;20032;-63
2021/12/01 06:13:01;;;;;;;4.40;2.30;;;-12.20;99.90;;;;;;5095989;28;20040;-62
2021/12/01 06:15:30;;;;;;;1.65;1.55;;;-12.20;99.90;;;;;;5094931;27;20103;-64
2021/12/01 06:17:58;;;;;;;3.72;1.85;;;-12.20;99.90;;;;;;5093061;28;20123;-64
2021/12/01 06:20:25;;;;;;;3.78;1.70;;;-12.20;99.90;;;;;;5092873;28;20024;-64
2021/12/01 06:22:52;;;;;;;2.22;2.00;;;-12.10;99.90;;;;;;5092887;28;20067;-64
2021/12/01 06:25:19;;;;;;;2.67;1.90;;;-11.70;99.90;;;;;;5092260;28;20035;-64
2021/12/01 06:27:45;;;;;;;2.40;2.13;;;-11.90;99.90;;;;;;5092430;28;20031;-64
2021/12/01 06:30:11;;;;;;;2.63;1.92;;;-12.00;99.90;;;;;;5093065;28;20024;-63
2021/12/01 06:32:38;;;;;;;1.67;1.52;;;-12.10;99.90;;;;;;5092973;28;20024;-64
2021/12/01 06:35:04;;;;;;;3.25;2.22;;;-12.10;99.90;;;;;;5092641;28;20024;-64
2021/12/01 06:37:30;;;;;;;2.70;1.63;;;-12.20;99.90;;;;;;5092924;28;20028;-64
2021/12/01 06:39:56;;;;;;;1.80;1.70;;;-12.30;99.90;;;;;;5092555;28;20024;-64
2021/12/01 06:42:22;;;;;;;6.18;1.70;;;-12.40;99.90;;;;;;5092700;28;20023;-63
2021/12/01 06:44:47;;;;;;;1.88;1.77;;;-11.80;99.90;;;;;;5092083;28;20110;-63
2021/12/01 06:47:15;;;;;;;1.58;1.33;;;-10.80;99.90;;;;;;5092578;28;20028;-63
2021/12/01 06:49:45;;;;;;;2.42;1.83;;;-11.00;99.90;;;;;;5092713;28;20027;-63
2021/12/01 06:52:12;;;;;;;2.55;2.13;;;-11.60;99.90;;;;;;5092873;28;20024;-63
2021/12/01 06:54:38;;;;;;;1.92;1.75;;;-11.90;99.90;;;;;;5092622;28;20369;-64
2021/12/01 06:57:04;;;;;;;1.83;1.73;;;-12.10;99.90;;;;;;5092499;28;20495;-64
2021/12/01 06:59:30;;;;;;;1.80;1.70;;;-12.20;99.90;;;;;;5092222;28;20118;-64
2021/12/01 07:01:56;;;;;;;3.50;1.75;;;-12.30;99.90;;;;;;5091492;28;20031;-63
2021/12/01 07:04:21;;;;;;;3.90;1.70;;;-12.30;99.90;;;;;;5092659;28;20119;-63
2021/12/01 07:06:47;;;;;;;1.50;1.40;;;-12.30;99.90;;;;;;5092618;28;20107;-63
2021/12/01 07:09:18;;;;;;;3.40;2.30;;;-12.30;99.90;;;;;;5090963;28;20077;-65
2021/12/01 07:11:48;;;;;;;4.45;2.50;;;-12.50;99.90;;;;;;5098675;28;20016;-63
2021/12/01 07:14:14;;;;;;;7.05;2.83;;;-12.60;99.90;;;;;;5112665;28;20028;-63
2021/12/01 07:16:40;;;;;;;12.25;3.83;;;-12.60;99.90;;;;;;5112891;28;20054;-63
2021/12/01 07:19:06;;;;;;;5.38;3.17;;;-12.70;99.90;;;;;;5112304;28;20023;-63
2021/12/01 07:21:32;;;;;;;4.85;2.17;;;-12.80;99.90;;;;;;5112722;28;20031;-63
2021/12/01 07:23:58;;;;;;;1.77;1.67;;;-12.90;99.90;;;;;;5111996;28;20070;-62
2021/12/01 07:26:24;;;;;;;2.05;1.70;;;-12.90;99.90;;;;;;5112619;28;20055;-62
2021/12/01 07:28:50;;;;;;;2.05;1.88;;;-13.00;99.90;;;;;;5112049;28;20026;-62
2021/12/01 07:31:17;;;;;;;1.98;1.77;;;-12.90;99.90;;;;;;5112306;28;20028;-63
2021/12/01 07:33:43;;;;;;;5.72;1.80;;;-12.90;99.90;;;;;;5104996;28;20026;-63
2021/12/01 07:36:08;;;;;;;2.35;1.58;;;-12.90;99.90;;;;;;5105364;28;20020;-62
2021/12/01 07:38:34;;;;;;;2.38;1.83;;;-12.90;99.90;;;;;;5110853;28;20497;-64
2021/12/01 07:41:00;;;;;;;1.70;1.60;;;-12.90;99.90;;;;;;5116364;28;20494;-63
2021/12/01 07:43:26;;;;;;;1.60;1.50;;;-12.70;99.90;;;;;;5116486;28;20027;-63
2021/12/01 07:45:51;;;;;;;2.42;1.80;;;-12.70;99.90;;;;;;5110155;28;20060;-64
2021/12/01 07:48:17;;;;;;;1.88;1.77;;;-12.30;99.90;;;;;;5106588;28;20477;-64
2021/12/01 07:50:43;;;;;;;2.00;1.80;;;-12.40;99.90;;;;;;5101091;28;20434;-64
2021/12/01 07:53:09;;;;;;;2.15;1.95;;;-12.60;99.90;;;;;;5095740;28;20134;-63
2021/12/01 07:55:35;;;;;;;3.47;1.80;;;-12.40;99.90;;;;;;5095795;28;20032;-63
2021/12/01 07:58:01;;;;;;;2.50;2.30;;;-12.40;99.90;;;;;;5095849;28;20027;-64
2021/12/01 08:00:27;;;;;;;2.50;2.22;;;-12.70;99.90;;;;;;5100596;28;20043;-64
2021/12/01 08:02:53;;;;;;;2.20;2.00;;;-13.00;99.90;;;;;;5101058;28;20031;-64
2021/12/01 08:05:19;;;;;;;2.67;1.98;;;-13.30;99.90;;;;;;5115972;28;20038;-65
2021/12/01 08:07:45;;;;;;;2.08;1.40;;;-13.40;99.90;;;;;;5099628;28;20024;-65
2021/12/01 08:10:11;;;;;;;1.77;1.67;;;-13.50;99.90;;;;;;5095455;28;20034;-64
2021/12/01 08:12:38;;;;;;;1.60;1.50;;;-13.60;99.90;;;;;;5095776;28;20103;-64
2021/12/01 08:15:06;;;;;;;2.55;2.00;;;-13.70;99.90;;;;;;5105831;28;20077;-63
2021/12/01 08:17:31;;;;;;;3.13;1.33;;;-13.80;99.90;;;;;;5108552;28;20456;-62
2021/12/01 08:19:58;;;;;;;1.85;1.73;;;-11.30;99.90;;;;;;5105094;28;20031;-62
2021/12/01 08:22:26;;;;;;;2.05;1.85;;;-8.40;99.90;;;;;;5114347;28;20475;-62
2021/12/01 08:24:52;;;;;;;1.77;1.65;;;-9.30;99.90;;;;;;5098922;28;20391;-62
2021/12/01 08:27:17;;;;;;;1.60;1.50;;;-10.70;99.90;;;;;;5095565;28;20020;-62
2021/12/01 08:29:43;;;;;;;1.50;1.40;;;-11.80;99.90;;;;;;5109760;28;20043;-63
2021/12/01 08:32:09;;;;;;;2.40;1.48;;;-12.40;99.90;;;;;;5115800;28;20024;-63
2021/12/01 08:34:35;;;;;;;2.83;1.77;;;-12.70;99.90;;;;;;5115877;28;20118;-62
2021/12/01 08:37:00;;;;;;;1.55;1.40;;;-13.00;99.90;;;;;;5115723;28;20054;-62
2021/12/01 08:39:26;;;;;;;2.10;1.58;;;-13.20;99.90;;;;;;5104279;28;20415;-63
2021/12/01 08:41:52;;;;;;;7.20;2.10;;;-13.40;99.90;;;;;;5108994;28;20030;-62
2021/12/01 08:44:18;;;;;;;4.32;1.92;;;-13.50;99.90;;;;;;5115465;27;20435;-63
2021/12/01 08:46:44;;;;;;;3.63;2.00;;;-13.60;99.90;;;;;;5115263;28;20070;-63
2021/12/01 08:49:10;;;;;;;2.47;2.03;;;-13.70;99.90;;;;;;5114858;28;20028;-62
2021/12/01 08:51:36;;;;;;;2.20;1.92;;;-13.80;99.90;;;;;;5097356;28;20111;-63
2021/12/01 08:54:02;;;;;;;2.05;1.95;;;-13.90;99.90;;;;;;5103550;28;20023;-63
2021/12/01 08:56:27;;;;;;;2.15;1.95;;;-13.80;99.90;;;;;;5097068;27;20051;-62
2021/12/01 08:58:53;;;;;;;3.70;2.20;;;-12.80;99.90;;;;;;5094221;28;20487;-63
2021/12/01 09:01:19;;;;;;;4.75;1.77;;;-13.00;99.90;;;;;;5094127;28;20066;-63
2021/12/01 09:03:45;;;;;;;2.40;2.20;;;-13.40;99.90;;;;;;5110159;28;20020;-63
2021/12/01 09:06:10;;;;;;;1.70;1.60;;;-13.60;99.90;;;;;;5094466;28;20032;-62
2021/12/01 09:08:39;;;;;;;2.10;1.90;;;-13.70;99.90;;;;;;5097176;28;20028;-62
2021/12/01 09:11:06;;;;;;;2.20;2.00;;;-13.80;99.90;;;;;;5114506;28;20063;-63
2021/12/01 09:13:33;;;;;;;1.92;1.73;;;-13.80;99.90;;;;;;5114679;27;20498;-63
2021/12/01 09:15:59;;;;;;;2.30;2.10;;;-13.90;99.90;;;;;;5107462;28;20112;-63
2021/12/01 09:18:27;;;;;;;2.67;2.47;;;-13.80;99.90;;;;;;5102760;28;20026;-63
2021/12/01 09:20:53;;;;;;;6.68;2.03;;;-13.80;99.90;;;;;;5102892;28;20043;-63
2021/12/01 09:23:19;;;;;;;1.50;1.40;;;-13.80;99.90;;;;;;5114768;28;20081;-63
2021/12/01 09:25:46;;;;;;;2.10;1.90;;;-13.80;99.90;;;;;;5114706;28;20114;-62
2021/12/01 09:28:14;;;;;;;1.95;1.80;;;-13.80;99.90;;;;;;5114281;28;20107;-63
2021/12/01 09:30:40;;;;;;;1.88;1.77;;;-13.80;99.90;;;;;;5112339;28;20019;-62
2021/12/01 09:33:05;;;;;;;1.77;1.67;;;-13.80;99.90;;;;;;5093879;28;20069;-63
2021/12/01 09:35:31;;;;;;;1.75;1.63;;;-13.90;99.90;;;;;;5098819;28;20414;-63
2021/12/01 09:37:57;;;;;;;2.20;1.70;;;-13.90;99.90;;;;;;5093882;28;20408;-62
2021/12/01 09:40:23;;;;;;;3.65;1.77;;;-13.90;99.90;;;;;;5093853;28;20020;-62
2021/12/01 09:42:52;;;;;;;2.00;1.83;;;-14.00;99.90;;;;;;5094046;28;20024;-63
2021/12/01 09:45:20;;;;;;;1.83;1.60;;;-14.00;99.90;;;;;;5093707;28;20032;-62
2021/12/01 09:47:47;;;;;;;2.63;1.73;;;-14.00;99.90;;;;;;5093759;28;20023;-62
2021/12/01 09:50:13;;;;;;;2.03;1.85;;;-14.00;99.90;;;;;;5093526;28;20480;-62
2021/12/01 09:52:39;;;;;;;3.25;2.05;;;-14.10;99.90;;;;;;5094019;28;20055;-62
2021/12/01 09:55:06;;;;;;;1.80;1.70;;;-14.10;99.90;;;;;;5093537;28;20032;-62
2021/12/01 09:57:32;;;;;;;4.20;2.15;;;-14.10;99.90;;;;;;5093960;28;20020;-63
2021/12/01 09:59:58;;;;;;;2.95;1.90;;;-14.00;99.90;;;;;;5093053;28;20558;-62
2021/12/01 10:02:25;;;;;;;2.53;1.80;;;-13.80;99.90;;;;;;5092834;28;20020;-63
2021/12/01 10:04:51;;;;;;;2.53;2.20;;;-13.70;99.90;;;;;;5093247;28;20494;-63
2021/12/01 10:07:26;;;;;;;3.20;3.00;;;-13.60;99.90;;;;;;5093334;28;20471;-63
2021/12/01 10:09:57;;;;;;;2.00;1.80;;;-12.60;99.90;;;;;;5093584;28;20031;-63
2021/12/01 10:12:24;;;;;;;3.67;2.33;;;-12.40;99.90;;;;;;5099422;28;20157;-60
2021/12/01 10:14:51;;;;;;;3.28;2.00;;;-13.10;99.90;;;;;;5104409;28;20475;-63
2021/12/01 10:17:32;;;;;;;2.53;1.90;;;-13.40;99.90;;;;;;5110552;28;20372;-60
2021/12/01 10:20:17;;;;;;;;;;;-13.70;99.90;;;;;;5102547;28;20015;-60
2021/12/01 10:23:16;;;;;;;3.15;2.20;;;-13.70;99.90;;;;;;5104107;28;19968;-61
2021/12/01 10:25:43;;;;;;;1.80;1.70;;;-13.70;99.90;;;;;;5068014;28;20399;-61
2021/12/01 10:28:13;;;;;;;3.28;1.80;;;-13.80;99.90;;;;;;5102827;28;20031;-61
2021/12/01 10:30:46;;;;;;;1.50;1.40;;;-13.80;99.90;;;;;;5103575;28;20589;-61
2021/12/01 10:33:15;;;;;;;2.10;1.92;;;-13.70;99.90;;;;;;5095225;28;20031;-61
2021/12/01 10:35:42;;;;;;;1.85;1.75;;;-13.80;99.90;;;;;;5092648;28;20018;-61
2021/12/01 10:38:09;;;;;;;2.60;1.52;;;-13.80;99.90;;;;;;5091370;28;20112;-61
2021/12/01 10:40:37;;;;;;;1.65;1.55;;;-13.80;99.90;;;;;;5092545;28;20035;-61
2021/12/01 10:43:05;;;;;;;1.63;1.50;;;-13.80;99.90;;;;;;5092707;28;20026;-62
2021/12/01 10:45:45;;;;;;;2.22;1.67;;;-13.80;99.90;;;;;;5092239;28;20085;-62
2021/12/01 10:48:27;;;;;;;1.90;1.80;;;-13.90;99.90;;;;;;5097719;28;20020;-61
2021/12/01 10:50:53;;;;;;;2.13;1.75;;;-14.00;99.90;;;;;;5102861;28;20052;-61
2021/12/01 10:53:22;;;;;;;1.67;1.58;;;-13.90;99.90;;;;;;5103969;28;20027;-62
2021/12/01 10:55:55;;;;;;;2.05;1.88;;;-13.90;99.90;;;;;;5106418;28;20027;-61
2021/12/01 10:58:21;;;;;;;1.73;1.63;;;-13.90;99.90;;;;;;5096160;28;20016;-61
2021/12/01 11:00:50;;;;;;;2.10;1.90;;;-14.00;99.90;;;;;;5092507;28;20042;-61
2021/12/01 11:03:20;;;;;;;2.20;1.58;;;-13.90;99.90;;;;;;5092478;28;20031;-61
2021/12/01 11:05:48;;;;;;;1.88;1.60;;;-14.00;99.90;;;;;;5092248;28;20032;-61
2021/12/01 11:08:18;;;;;;;1.70;1.60;;;-13.90;99.90;;;;;;5092133;28;20070;-61
2021/12/01 11:10:49;;;;;;;1.58;1.48;;;-14.00;99.90;;;;;;5092269;28;20031;-61
2021/12/01 11:13:16;;;;;;;3.40;1.77;;;-14.00;99.90;;;;;;5091726;28;20089;-61
2021/12/01 11:15:45;;;;;;;1.85;1.75;;;-14.00;99.90;;;;;;5092446;28;20024;-61
2021/12/01 11:18:18;;;;;;;1.90;1.80;;;-13.90;99.90;;;;;;5091832;28;20483;-61
2021/12/01 11:20:52;;;;;;;2.08;1.65;;;-13.90;99.90;;;;;;5102409;28;20023;-61
2021/12/01 11:23:22;;;;;;;1.65;1.55;;;-13.80;99.90;;;;;;5112408;28;20063;-61
2021/12/01 11:25:56;;;;;;;4.40;1.70;;;-13.80;99.90;;;;;;5111101;28;20027;-61
2021/12/01 11:28:25;;;;;;;1.80;1.70;;;-13.80;99.90;;;;;;5109617;28;20022;-61
2021/12/01 11:30:55;;;;;;;1.67;1.57;;;-13.90;99.90;;;;;;5109422;28;20023;-61
2021/12/01 11:33:22;;;;;;;1.70;1.60;;;-13.90;99.90;;;;;;5112669;28;20043;-61
2021/12/01 11:35:54;;;;;;;1.67;1.58;;;-14.00;99.90;;;;;;5105985;28;20107;-62
2021/12/01 11:38:21;;;;;;;1.50;1.40;;;-14.00;99.90;;;;;;5102398;28;20570;-61
2021/12/01 11:40:48;;;;;;;1.98;1.77;;;-14.00;99.90;;;;;;5101317;28;20031;-61
2021/12/01 11:43:15;;;;;;;1.77;1.67;;;-14.00;99.90;;;;;;5100419;28;20024;-61
2021/12/01 11:45:44;;;;;;;1.77;1.58;;;-14.00;99.90;;;;;;5099649;28;20043;-61
2021/12/01 11:48:42;;;;;;;1.30;1.30;;;-14.00;99.90;;;;;;5101285;28;20008;-61
2021/12/01 11:51:18;;;;;;;1.58;1.40;;;-14.00;99.90;;;;;;5089837;28;20032;-61
2021/12/01 11:54:04;;;;;;;1.73;1.63;;;-14.00;99.90;;;;;;5102354;28;20031;-62
2021/12/01 11:56:33;;;;;;;3.08;1.85;;;-14.10;99.90;;;;;;5100499;28;20060;-61
2021/12/01 11:59:14;;;;;;;1.75;1.65;;;-14.20;99.90;;;;;;5108345;28;20070;-61
2021/12/01 12:01:51;;;;;;;2.13;1.83;;;-14.20;99.90;;;;;;5108768;28;20092;-62
2021/12/01 12:04:22;;;;;;;1.38;1.35;;;-14.20;99.90;;;;;;5108465;28;20027;-62
2021/12/01 12:07:14;;;;;;;1.75;1.65;;;-14.20;99.90;;;;;;5116090;28;20056;-62
2021/12/01 12:09:40;;;;;;;1.60;1.50;;;-14.30;99.90;;;;;;5103660;28;20019;-62
2021/12/01 12:12:17;;;;;;;1.50;1.40;;;-14.30;99.90;;;;;;5121163;28;20059;-62
2021/12/01 12:14:46;;;;;;;1.88;1.77;;;-14.30;99.90;;;;;;5110776;28;20099;-62
2021/12/01 12:17:15;;;;;;;1.55;1.45;;;-14.40;99.90;;;;;;5103234;28;20514;-62
2021/12/01 12:19:46;;;;;;;1.60;1.50;;;-14.40;99.90;;;;;;5101350;28;20019;-62
2021/12/01 12:22:49;;;;;;;2.03;1.77;;;-14.40;99.90;;;;;;5106454;28;20027;-62
2021/12/01 12:26:04;;;;;;;1.88;1.77;;;-14.40;99.90;;;;;;5114482;27;20498;-62
2021/12/01 12:28:34;;;;;;;1.30;1.30;;;-14.40;99.90;;;;;;5121953;27;20514;-61
2021/12/01 12:31:07;;;;;;;1.65;1.55;;;-14.40;99.90;;;;;;5119736;27;20557;-61
2021/12/01 12:33:38;;;;;;;1.58;1.35;;;-14.20;99.90;;;;;;5125571;27;20496;-61
2021/12/01 12:36:09;;;;;;;1.80;1.70;;;-14.10;99.90;;;;;;5128869;27;20032;-61
2021/12/01 12:38:36;;;;;;;1.60;1.50;;;-14.10;99.90;;;;;;5121088;27;20034;-61
2021/12/01 12:41:07;;;;;;;1.45;1.40;;;-14.10;99.90;;;;;;5131541;27;20042;-61
2021/12/01 12:43:33;;;;;;;1.98;1.80;;;-14.00;99.90;;;;;;5120274;27;20493;-62
2021/12/01 12:46:19;;;;;;;1.77;1.67;;;-13.80;99.90;;;;;;5125426;27;20035;-62
2021/12/01 12:48:50;;;;;;;1.95;1.60;;;-13.80;99.90;;;;;;5130176;27;20444;-61
2021/12/01 12:51:33;;;;;;;6.97;1.58;;;-14.00;99.90;;;;;;5118025;27;20027;-62
2021/12/01 12:54:03;;;;;;;1.45;1.35;;;-14.10;99.90;;;;;;5125423;27;20471;-62
2021/12/01 12:56:30;;;;;;;;;;;-14.20;99.90;;;;;;5128100;27;20031;-61
2021/12/01 12:59:27;;;;;;;1.52;1.30;;;-14.30;99.90;;;;;;5134268;27;19917;-61
2021/12/01 13:01:55;;;;;;;1.65;1.55;;;-13.90;99.90;;;;;;5115375;27;20118;-62
2021/12/01 13:04:54;;;;;;;1.65;1.55;;;-13.50;99.90;;;;;;5105303;27;20038;-62
2021/12/01 13:07:38;;;;;;;1.20;1.20;;;-13.90;99.90;;;;;;5105490;27;20031;-62
2021/12/01 13:10:29;;;;;;;1.60;1.50;;;-14.10;99.90;;;;;;5107148;27;20019;-62
2021/12/01 13:13:29;;;;;;;1.75;1.65;;;-14.20;99.90;;;;;;5106628;27;20387;-62
2021/12/01 13:15:55;;;;;;;1.58;1.50;;;-14.30;99.90;;;;;;5106230;27;20036;-62
2021/12/01 13:18:27;;;;;;;1.42;1.40;;;-14.40;99.90;;;;;;5122063;27;20118;-62
2021/12/01 13:20:58;;;;;;;1.13;1.13;;;-14.40;99.90;;;;;;5130782;27;20152;-62